Time;durP1;ratioP1;P1;durP2;ratioP2;P2;SDS_P1;SDS_P2;PMS_P1;PMS_P2;Temp;Humidity;BMP_temperature;BMP_pressure;BME280_temperature;BME280_humidity;BME280_pressure;Samples;Min_cycle;Max_cycle;Signal;HPM_P1;HPM_P2
2022/08/23 00:00:03;;;;;;;8.50;4.50;;;;;;;19.87;79.52;101274.84;5050168;28;20141;-65
2022/08/23 00:02:41;;;;;;;10.57;4.43;;;;;;;19.96;79.61;101273.94;5051935;28;20048;-57
2022/08/23 00:05:10;;;;;;;13.50;4.93;;;;;;;19.83;80.07;101268.97;5051921;28;20395;-65
2022/08/23 00:07:40;;;;;;;11.60;5.05;;;;;;;19.82;80.25;101267.28;5052009;28;20041;-57
2022/08/23 00:10:13;;;;;;;10.07;5.13;;;;;;;19.80;80.03;101263.06;5052314;28;20369;-54
2022/08/23 00:12:44;;;;;;;12.52;5.30;;;;;;;19.73;80.42;101270.84;5053317;28;20573;-59
2022/08/23 00:15:15;;;;;;;13.50;6.13;;;;;;;19.68;80.64;101265.94;5050405;28;20123;-56
2022/08/23 00:17:43;;;;;;;11.88;5.32;;;;;;;19.65;81.37;101257.41;5053373;28;20055;-56
2022/08/23 00:20:14;;;;;;;12.40;5.47;;;;;;;19.61;81.52;101259.53;5051045;28;20068;-58
2022/08/23 00:22:42;;;;;;;12.85;5.82;;;;;;;19.62;81.48;101252.34;5051900;28;20416;-64
2022/08/23 00:25:14;;;;;;;10.18;5.28;;;;;;;19.52;81.74;101250.56;5051504;28;20049;-64
2022/08/23 00:27:43;;;;;;;12.05;5.53;;;;;;;19.50;82.05;101251.75;5052690;28;20049;-57
2022/08/23 00:30:13;;;;;;;9.90;5.32;;;;;;;19.51;82.10;101259.59;5050618;28;20127;-64
2022/08/23 00:32:42;;;;;;;13.80;5.20;;;;;;;19.55;82.16;101254.78;5050092;28;20037;-64
2022/08/23 00:35:13;;;;;;;10.57;5.10;;;;;;;19.56;82.98;101259.13;5053035;28;20048;-56
2022/08/23 00:37:56;;;;;;;10.93;5.35;;;;;;;19.49;83.58;101248.22;5051331;28;20124;-56
2022/08/23 00:40:45;;;;;;;13.88;6.18;;;;;;;19.40;82.75;101255.28;5050717;28;20056;-58
2022/08/23 00:49:01;;;;;;;11.25;5.80;;;;;;;19.34;84.80;101255.88;5051189;28;20591;-56
2022/08/23 00:51:36;;;;;;;10.23;5.22;;;;;;;19.31;84.66;101242.84;5051482;28;20055;-57
2022/08/23 00:54:20;;;;;;;13.20;5.22;;;;;;;19.37;85.42;101249.41;5050568;28;20057;-56
2022/08/23 00:56:50;;;;;;;9.30;4.97;;;;;;;19.27;86.57;101254.78;5053343;28;20076;-64
2022/08/23 00:59:20;;;;;;;13.55;5.40;;;;;;;19.21;85.94;101252.69;5053332;28;20048;-57
2022/08/23 01:01:48;;;;;;;10.00;5.30;;;;;;;19.16;86.99;101258.47;5053518;28;20039;-64
2022/08/23 01:04:17;;;;;;;11.10;4.93;;;;;;;19.11;87.68;101251.91;5049723;28;20103;-56
2022/08/23 01:06:50;;;;;;;9.43;4.85;;;;;;;19.01;88.01;101250.09;5050328;28;20049;-64
2022/08/23 01:09:21;;;;;;;10.98;5.43;;;;;;;19.01;87.14;101254.59;5050419;28;20056;-55
2022/08/23 01:11:53;;;;;;;11.13;5.28;;;;;;;18.95;87.95;101255.16;5049590;28;20055;-57
2022/08/23 01:14:29;;;;;;;10.73;4.82;;;;;;;18.97;88.39;101254.03;5050565;28;20057;-56
2022/08/23 01:17:02;;;;;;;9.02;4.47;;;;;;;18.90;88.57;101261.78;5048446;28;20041;-57
2022/08/23 01:19:36;;;;;;;11.98;5.60;;;;;;;18.83;89.23;101254.47;5050256;28;20063;-58
2022/08/23 01:22:11;;;;;;;10.32;4.78;;;;;;;18.84;89.66;101258.81;5051331;28;20068;-62
2022/08/23 01:24:42;;;;;;;8.32;4.35;;;;;;;18.73;90.35;101260.69;5052628;28;20053;-58
2022/08/23 01:27:30;;;;;;;9.60;4.72;;;;;;;18.77;90.18;101265.72;5049974;28;20048;-65
2022/08/23 01:30:00;;;;;;;9.63;5.47;;;;;;;18.67;89.56;101263.91;5047327;28;20085;-64
2022/08/23 01:32:28;;;;;;;9.77;4.88;;;;;;;18.66;90.63;101267.53;5051944;28;20469;-65
2022/08/23 01:34:56;;;;;;;10.55;4.72;;;;;;;18.63;91.33;101261.69;5050576;28;20476;-64
2022/08/23 01:37:24;;;;;;;9.13;4.95;;;;;;;18.59;91.74;101264.59;5049644;28;20072;-63
2022/08/23 01:39:54;;;;;;;9.55;4.90;;;;;;;18.53;91.81;101265.19;5049078;28;20127;-64
2022/08/23 01:42:22;;;;;;;8.73;4.45;;;;;;;18.55;91.88;101257.06;5048481;28;20154;-57
2022/08/23 01:44:50;;;;;;;9.63;4.95;;;;;;;18.49;92.80;101255.81;5050408;28;20114;-55
2022/08/23 01:47:18;;;;;;;10.00;4.55;;;;;;;18.47;92.90;101262.25;5050496;28;20041;-57
2022/08/23 01:49:46;;;;;;;10.27;5.07;;;;;;;18.36;93.54;101264.06;5049277;28;20079;-56
2022/08/23 01:52:16;;;;;;;11.57;4.97;;;;;;;18.36;93.49;101266.72;5051603;28;20049;-64
2022/08/23 01:54:44;;;;;;;8.23;4.85;;;;;;;18.35;93.79;101266.88;5049619;28;20033;-63
2022/08/23 01:57:13;;;;;;;10.80;4.72;;;;;;;18.32;93.61;101265.31;5050040;28;20055;-56
2022/08/23 01:59:43;;;;;;;8.48;4.63;;;;;;;18.23;93.71;101268.84;5051481;28;20045;-58
2022/08/23 02:02:12;;;;;;;9.55;5.35;;;;;;;18.20;94.81;101274.44;5052648;28;20500;-58
2022/08/23 02:04:40;;;;;;;9.50;5.30;;;;;;;18.20;94.84;101272.63;5048214;28;20052;-64
2022/08/23 02:07:08;;;;;;;9.23;4.95;;;;;;;18.22;94.85;101275.16;5049829;28;20065;-56
2022/08/23 02:09:36;;;;;;;10.30;5.30;;;;;;;18.18;95.36;101271.09;5049816;28;20098;-56
2022/08/23 02:12:05;;;;;;;14.05;7.20;;;;;;;18.20;94.69;101267.31;5049471;28;20048;-58
2022/08/23 02:14:36;;;;;;;9.95;5.72;;;;;;;18.11;95.10;101276.13;5049600;28;20045;-64
2022/08/23 02:17:08;;;;;;;10.27;6.57;;;;;;;18.05;95.00;101264.22;5051515;28;20128;-64
2022/08/23 02:19:38;;;;;;;14.45;8.07;;;;;;;18.02;95.17;101263.63;5051851;28;20041;-63
2022/08/23 02:22:08;;;;;;;15.25;7.47;;;;;;;18.10;94.68;101268.28;5049772;28;20040;-64
2022/08/23 02:24:40;;;;;;;11.43;7.75;;;;;;;18.09;94.71;101256.78;5049610;28;20431;-57
2022/08/23 02:27:08;;;;;;;14.57;8.10;;;;;;;18.05;94.48;101260.69;5049474;28;20057;-64
2022/08/23 02:29:39;;;;;;;13.02;7.97;;;;;;;18.03;94.55;101263.50;5049269;28;20045;-64
2022/08/23 02:32:08;;;;;;;12.60;7.22;;;;;;;18.03;94.46;101263.50;5048931;28;20072;-56
2022/08/23 02:34:37;;;;;;;15.25;8.45;;;;;;;17.95;94.15;101263.34;5049274;28;20041;-56
2022/08/23 02:37:06;;;;;;;15.75;8.35;;;;;;;17.95;94.98;101265.19;5050637;28;20088;-64
2022/08/23 02:39:35;;;;;;;12.82;8.50;;;;;;;17.92;94.98;101260.97;5050129;28;20443;-56
2022/08/23 02:42:06;;;;;;;20.85;10.00;;;;;;;18.01;93.79;101265.47;5049046;28;20114;-55
2022/08/23 02:44:40;;;;;;;16.92;9.52;;;;;;;17.98;94.18;101262.22;5051791;28;20504;-64
2022/08/23 02:47:08;;;;;;;18.50;9.88;;;;;;;18.03;94.15;101263.50;5049506;28;20053;-63
2022/08/23 02:49:36;;;;;;;17.30;10.52;;;;;;;18.00;94.71;101262.94;5048920;28;20071;-56
2022/08/23 02:52:06;;;;;;;18.48;10.25;;;;;;;18.02;94.76;101267.13;5051415;28;20045;-56
2022/08/23 02:54:36;;;;;;;16.35;10.30;;;;;;;17.99;94.45;101269.25;5051639;28;20350;-65
2022/08/23 02:57:05;;;;;;;16.17;9.55;;;;;;;17.97;94.20;101261.41;5049364;28;20055;-58
2022/08/23 02:59:34;;;;;;;13.27;8.90;;;;;;;17.99;94.95;101256.78;5051247;28;20049;-64
2022/08/23 03:02:03;;;;;;;15.18;7.65;;;;;;;17.94;95.38;101264.31;5051683;28;20048;-64
2022/08/23 03:04:31;;;;;;;14.18;8.50;;;;;;;17.93;95.92;101262.66;5052749;28;20049;-63
2022/08/23 03:06:59;;;;;;;13.02;7.03;;;;;;;17.93;96.05;101265.31;5052789;28;20585;-57
2022/08/23 03:09:28;;;;;;;12.75;6.70;;;;;;;17.83;97.37;101267.09;5053442;28;20133;-57
2022/08/23 03:11:59;;;;;;;10.63;6.55;;;;;;;17.83;97.20;101265.28;5053485;28;20053;-63
2022/08/23 03:14:27;;;;;;;12.55;6.28;;;;;;;17.82;97.60;101266.25;5055701;28;20045;-63
2022/08/23 03:16:55;;;;;;;9.70;6.57;;;;;;;17.75;98.26;101262.44;5053947;28;20052;-64
2022/08/23 03:19:26;;;;;;;13.27;6.47;;;;;;;17.73;99.27;101259.09;5052727;28;20041;-64
2022/08/23 03:21:54;;;;;;;9.57;6.30;;;;;;;17.71;99.83;101263.69;5052626;28;20523;-62
2022/08/23 03:24:23;;;;;;;10.18;6.25;;;;;;;17.67;100.00;101263.13;5055435;28;20415;-57
2022/08/23 03:26:51;;;;;;;10.25;6.40;;;;;;;17.67;100.00;101271.13;5053581;28;20048;-56
2022/08/23 03:29:19;;;;;;;9.00;6.25;;;;;;;17.66;100.00;101266.75;5053349;28;20120;-59
2022/08/23 03:31:47;;;;;;;10.15;6.20;;;;;;;17.65;100.00;101267.72;5052782;28;20045;-65
2022/08/23 03:34:15;;;;;;;8.75;5.80;;;;;;;17.64;100.00;101267.88;5055368;28;20442;-57
2022/08/23 03:36:45;;;;;;;13.10;6.15;;;;;;;17.63;100.00;101267.03;5054409;28;20083;-55
2022/08/23 03:39:13;;;;;;;11.52;6.45;;;;;;;17.60;100.00;101271.78;5053256;28;20472;-55
2022/08/23 03:41:41;;;;;;;9.70;5.95;;;;;;;17.51;100.00;101266.31;5051870;28;20048;-65
2022/08/23 03:44:09;;;;;;;11.00;6.47;;;;;;;17.44;100.00;101275.81;5053018;28;20068;-56
2022/08/23 03:46:38;;;;;;;10.38;6.63;;;;;;;17.49;100.00;101280.69;5051050;28;20056;-62
2022/08/23 03:49:06;;;;;;;10.55;6.20;;;;;;;17.49;100.00;101270.94;5053189;28;20059;-63
2022/08/23 03:51:35;;;;;;;10.57;6.63;;;;;;;17.51;100.00;101270.78;5054943;28;20049;-63
2022/08/23 03:54:06;;;;;;;12.93;6.68;;;;;;;17.40;100.00;101279.69;5054873;28;20053;-56
2022/08/23 03:56:37;;;;;;;11.00;6.35;;;;;;;17.42;100.00;101276.91;5053544;28;20049;-58
2022/08/23 03:59:09;;;;;;;11.55;6.07;;;;;;;17.40;100.00;101285.03;5052370;28;20545;-63
2022/08/23 04:01:38;;;;;;;12.43;7.15;;;;;;;17.41;100.00;101292.03;5050430;28;20095;-57
2022/08/23 04:04:06;;;;;;;10.18;6.53;;;;;;;17.30;100.00;101292.97;5054559;28;20079;-56
2022/08/23 04:06:34;;;;;;;10.75;6.45;;;;;;;17.19;100.00;101295.69;5054792;28;20084;-64
2022/08/23 04:09:04;;;;;;;11.18;6.80;;;;;;;17.18;100.00;101291.38;5052679;28;20037;-63
2022/08/23 04:11:32;;;;;;;9.52;6.40;;;;;;;17.20;100.00;101297.38;5049100;28;20048;-62
2022/08/23 04:14:00;;;;;;;11.93;6.90;;;;;;;17.20;100.00;101295.53;5052190;28;20059;-63
2022/08/23 04:16:32;;;;;;;10.40;6.65;;;;;;;17.26;100.00;101294.19;5051226;28;20095;-57
2022/08/23 04:19:00;;;;;;;12.00;7.07;;;;;;;17.11;100.00;101295.50;5051740;28;20060;-62
2022/08/23 04:21:28;;;;;;;10.90;6.43;;;;;;;17.17;100.00;101297.66;5053899;28;20049;-55
2022/08/23 04:23:57;;;;;;;11.73;6.78;;;;;;;17.15;100.00;101299.56;5051120;28;20118;-56
2022/08/23 04:26:26;;;;;;;10.93;6.93;;;;;;;17.11;100.00;101298.16;5050659;28;20472;-55
2022/08/23 04:28:57;;;;;;;12.47;6.80;;;;;;;17.16;100.00;101301.28;5051527;28;20045;-61
2022/08/23 04:31:26;;;;;;;13.10;6.68;;;;;;;17.10;100.00;101297.34;5049773;28;20466;-57
2022/08/23 04:33:56;;;;;;;13.68;6.90;;;;;;;17.05;100.00;101296.88;5053186;28;20061;-55
2022/08/23 04:36:31;;;;;;;12.20;6.65;;;;;;;17.09;100.00;101306.28;5051681;28;20057;-62
2022/08/23 04:39:01;;;;;;;11.82;6.43;;;;;;;17.14;100.00;101311.19;5050147;28;20514;-57
2022/08/23 04:44:17;;;;;;;11.80;6.32;;;;;;;17.07;100.00;101308.22;5051109;28;20049;-63
2022/08/23 04:46:48;;;;;;;9.98;7.00;;;;;;;17.07;100.00;101313.53;5049075;28;20116;-56
2022/08/23 04:49:17;;;;;;;11.50;7.15;;;;;;;16.99;100.00;101324.81;5050627;28;20131;-57
2022/08/23 04:51:45;;;;;;;14.85;8.57;;;;;;;16.96;100.00;101337.50;5051292;28;20041;-63
2022/08/23 04:54:22;;;;;;;14.40;8.75;;;;;;;17.01;100.00;101332.66;5052391;28;20045;-64
2022/08/23 04:56:51;;;;;;;13.70;7.75;;;;;;;17.04;100.00;101330.59;5050367;28;20102;-57
2022/08/23 04:59:19;;;;;;;12.00;8.38;;;;;;;17.01;100.00;101338.78;5051047;28;20055;-62
2022/08/23 05:01:47;;;;;;;14.07;8.85;;;;;;;17.08;100.00;101335.63;5049000;28;20068;-56
2022/08/23 05:04:15;;;;;;;14.75;8.82;;;;;;;17.02;100.00;101337.00;5052024;28;20057;-57
2022/08/23 05:06:44;;;;;;;11.25;8.18;;;;;;;17.00;100.00;101338.94;5050690;28;20461;-63
2022/08/23 05:09:14;;;;;;;15.48;8.85;;;;;;;16.96;100.00;101333.06;5050753;28;20048;-63
2022/08/23 05:11:48;;;;;;;14.15;9.27;;;;;;;16.88;100.00;101340.78;5048849;28;20083;-55
2022/08/23 05:14:17;;;;;;;14.48;8.82;;;;;;;16.97;100.00;101347.16;5052539;28;20045;-57
2022/08/23 05:16:53;;;;;;;11.68;8.45;;;;;;;17.03;100.00;101344.84;5047465;28;20064;-57
2022/08/23 05:19:21;;;;;;;14.27;8.65;;;;;;;17.00;100.00;101344.25;5051796;28;20051;-62
2022/08/23 05:21:49;;;;;;;13.98;7.90;;;;;;;17.14;100.00;101349.25;5051109;28;20072;-56
2022/08/23 05:24:23;;;;;;;15.80;9.35;;;;;;;17.08;100.00;101352.41;5053051;28;20048;-63
2022/08/23 05:26:51;;;;;;;13.93;8.95;;;;;;;17.11;100.00;101356.63;5049248;28;20048;-63
2022/08/23 05:29:21;;;;;;;15.90;9.30;;;;;;;17.12;100.00;101355.66;5050765;28;20045;-63
2022/08/23 05:31:49;;;;;;;16.15;9.65;;;;;;;17.09;100.00;101362.06;5051645;28;20044;-63
2022/08/23 05:34:18;;;;;;;14.57;9.25;;;;;;;17.11;100.00;101361.94;5050590;28;20060;-63
2022/08/23 05:36:50;;;;;;;12.73;9.60;;;;;;;17.22;100.00;101372.53;5050292;28;20111;-63
2022/08/23 05:39:23;;;;;;;16.58;9.63;;;;;;;17.20;100.00;101358.50;5049918;28;20049;-64
2022/08/23 05:42:03;;;;;;;16.50;10.30;;;;;;;17.23;100.00;101367.06;5049574;28;20044;-63
2022/08/23 05:44:33;;;;;;;16.30;10.65;;;;;;;17.28;100.00;101369.31;5051498;28;20412;-56
2022/08/23 05:47:05;;;;;;;15.50;11.10;;;;;;;17.33;100.00;101368.91;5052714;28;20132;-63
2022/08/23 05:49:39;;;;;;;16.08;10.40;;;;;;;17.43;100.00;101363.66;5052358;28;20492;-58
2022/08/23 05:52:09;;;;;;;16.05;10.55;;;;;;;17.47;100.00;101367.75;5051764;28;20075;-55
2022/08/23 05:54:37;;;;;;;15.63;10.93;;;;;;;17.53;100.00;101370.72;5049113;28;20052;-55
2022/08/23 05:57:06;;;;;;;15.90;10.82;;;;;;;17.67;100.00;101361.53;5050302;28;20106;-55
2022/08/23 05:59:35;;;;;;;17.83;11.38;;;;;;;17.67;100.00;101363.34;5052163;28;20038;-57
2022/08/23 06:02:04;;;;;;;14.57;10.88;;;;;;;17.75;100.00;101360.84;5051382;28;20052;-57
2022/08/23 06:04:33;;;;;;;17.27;11.48;;;;;;;17.86;100.00;101368.75;5052047;28;20095;-63
2022/08/23 06:07:01;;;;;;;18.25;11.98;;;;;;;18.00;100.00;101370.22;5049777;28;20373;-57
2022/08/23 06:09:29;;;;;;;15.88;11.20;;;;;;;18.05;100.00;101372.47;5049174;28;20041;-58
2022/08/23 06:11:58;;;;;;;16.95;11.55;;;;;;;18.09;100.00;101371.22;5050645;28;20055;-57
2022/08/23 06:14:26;;;;;;;19.17;12.15;;;;;;;18.21;100.00;101382.59;5049856;28;20045;-63
2022/08/23 06:16:56;;;;;;;17.45;11.93;;;;;;;18.31;100.00;101379.94;5048060;28;20045;-63
2022/08/23 06:19:24;;;;;;;17.83;12.73;;;;;;;18.39;100.00;101375.63;5052247;28;20041;-58
2022/08/23 06:21:53;;;;;;;17.95;12.38;;;;;;;18.52;100.00;101375.34;5051061;28;20053;-63
2022/08/23 06:24:22;;;;;;;16.20;13.18;;;;;;;18.61;100.00;101381.69;5051979;28;20091;-62
2022/08/23 06:26:50;;;;;;;18.63;13.18;;;;;;;18.74;100.00;101384.88;5052461;28;20056;-63
2022/08/23 06:29:20;;;;;;;14.38;12.65;;;;;;;18.89;100.00;101387.16;5052139;28;20790;-63
2022/08/23 06:31:51;;;;;;;18.27;12.90;;;;;;;19.03;99.64;101386.75;5047964;28;20049;-57
2022/08/23 06:34:24;;;;;;;17.20;13.23;;;;;;;19.21;97.31;101389.50;5050856;28;20049;-65
2022/08/23 06:36:55;;;;;;;17.42;12.48;;;;;;;19.40;96.67;101385.97;5053335;28;20057;-64
2022/08/23 06:39:25;;;;;;;16.63;12.85;;;;;;;19.68;94.17;101382.50;5053882;28;20107;-64
2022/08/23 06:41:59;;;;;;;17.23;11.50;;;;;;;19.84;94.23;101379.25;5053294;28;20045;-59
2022/08/23 06:44:29;;;;;;;16.88;12.02;;;;;;;20.00;95.11;101375.91;5054651;28;20053;-55
2022/08/23 06:46:58;;;;;;;14.43;10.45;;;;;;;20.17;93.74;101376.94;5056276;28;20544;-64
2022/08/23 06:49:28;;;;;;;14.98;9.30;;;;;;;20.36;93.23;101379.47;5055642;28;20067;-65
2022/08/23 06:52:00;;;;;;;14.10;9.00;;;;;;;20.54;91.39;101371.47;5052147;28;20053;-58
2022/08/23 06:54:31;;;;;;;14.90;9.48;;;;;;;20.78;89.87;101380.75;5054147;28;20057;-64
2022/08/23 06:57:00;;;;;;;11.77;7.75;;;;;;;20.97;88.53;101379.72;5052628;28;20072;-58
2022/08/23 06:59:28;;;;;;;15.10;9.23;;;;;;;21.20;87.88;101381.88;5053682;28;20091;-64
2022/08/23 07:01:58;;;;;;;12.75;8.00;;;;;;;21.35;86.05;101380.31;5052806;28;20049;-57
2022/08/23 07:04:31;;;;;;;11.93;9.13;;;;;;;21.59;84.93;101376.13;5055663;28;20044;-65
2022/08/23 07:07:01;;;;;;;11.20;7.97;;;;;;;21.72;81.03;101373.00;5054968;28;20124;-57
2022/08/23 07:09:30;;;;;;;14.55;9.65;;;;;;;21.89;80.13;101373.91;5053529;28;20106;-58
2022/08/23 07:11:59;;;;;;;14.45;8.45;;;;;;;22.07;79.77;101374.66;5052193;28;20048;-58
2022/08/23 07:14:28;;;;;;;14.32;9.30;;;;;;;22.22;76.62;101384.72;5053895;28;20110;-66
2022/08/23 07:16:59;;;;;;;11.05;7.93;;;;;;;22.38;77.34;101386.63;5051018;28;20064;-57
2022/08/23 07:19:30;;;;;;;18.35;10.95;;;;;;;22.50;75.30;101381.81;5055299;28;20438;-68
2022/08/23 07:21:59;;;;;;;13.65;9.27;;;;;;;22.63;76.14;101379.44;5054599;28;20053;-67
2022/08/23 07:24:30;;;;;;;15.20;9.82;;;;;;;22.81;74.76;101381.13;5053103;28;20045;-67
2022/08/23 07:27:05;;;;;;;14.68;9.52;;;;;;;22.95;76.68;101386.66;5051762;28;20048;-57
2022/08/23 07:29:33;;;;;;;;;;;;;;;23.12;73.60;101392.00;5053751;28;20092;-59
2022/08/23 07:32:01;;;;;;;13.00;8.85;;;;;;;23.27;73.17;101389.50;5050930;28;19964;-66
2022/08/23 07:34:31;;;;;;;12.57;7.70;;;;;;;23.44;74.25;101391.16;5052917;28;20048;-65
2022/08/23 07:37:00;;;;;;;12.07;9.50;;;;;;;23.59;71.29;101387.75;5051469;28;20053;-67
2022/08/23 07:39:30;;;;;;;13.70;8.80;;;;;;;23.71;73.00;101391.75;5053266;28;20049;-56
2022/08/23 07:41:59;;;;;;;14.38;8.80;;;;;;;23.87;71.76;101388.13;5051874;28;20048;-65
2022/08/23 07:44:28;;;;;;;14.07;9.48;;;;;;;24.03;70.86;101389.94;5052711;28;20102;-57
2022/08/23 07:46:57;;;;;;;15.60;8.95;;;;;;;24.28;71.18;101395.19;5054487;28;20057;-57
2022/08/23 07:49:27;;;;;;;13.88;9.13;;;;;;;24.48;70.73;101393.69;5052478;28;20114;-57
2022/08/23 07:51:58;;;;;;;17.42;10.05;;;;;;;24.61;68.49;101398.53;5052243;28;20388;-66
2022/08/23 07:54:27;;;;;;;16.95;10.07;;;;;;;24.83;66.79;101397.84;5052277;28;20522;-66
2022/08/23 07:56:55;;;;;;;16.90;10.40;;;;;;;25.01;66.15;101401.06;5053858;28;20068;-65
2022/08/23 07:59:24;;;;;;;15.98;8.90;;;;;;;25.08;63.48;101399.31;5052399;28;20411;-67
2022/08/23 08:01:52;;;;;;;17.15;10.73;;;;;;;25.25;63.06;101401.81;5049979;28;20041;-57
2022/08/23 08:04:20;;;;;;;17.02;9.70;;;;;;;25.45;62.78;101407.53;5052277;28;20045;-67
2022/08/23 08:06:50;;;;;;;15.85;9.63;;;;;;;25.66;62.42;101404.13;5052281;28;20049;-57
2022/08/23 08:09:39;;;;;;;14.27;8.27;;;;;;;25.89;59.92;101408.53;5053927;28;20048;-57
2022/08/23 08:12:07;;;;;;;13.38;7.45;;;;;;;26.16;60.28;101407.03;5051794;28;20099;-67
2022/08/23 08:14:35;;;;;;;19.48;10.98;;;;;;;26.23;57.53;101401.72;5051898;28;20091;-57
2022/08/23 08:17:05;;;;;;;16.17;9.98;;;;;;;26.44;59.89;101406.31;5053038;28;20053;-67
2022/08/23 08:19:33;;;;;;;16.60;10.68;;;;;;;26.61;59.29;101409.59;5052302;28;20048;-67
2022/08/23 08:22:01;;;;;;;17.17;9.85;;;;;;;26.74;55.82;101409.75;5053909;28;20492;-67
2022/08/23 08:24:30;;;;;;;16.10;8.60;;;;;;;26.98;54.44;101418.44;5054297;28;20519;-66
2022/08/23 08:26:59;;;;;;;17.70;10.07;;;;;;;27.06;53.62;101407.50;5054215;28;20053;-67
2022/08/23 08:29:27;;;;;;;14.88;9.82;;;;;;;27.22;52.76;101414.47;5051566;28;20070;-66
2022/08/23 08:31:57;;;;;;;16.35;9.65;;;;;;;27.26;52.89;101421.16;5049691;28;20076;-57
2022/08/23 08:34:25;;;;;;;15.73;8.52;;;;;;;27.43;52.79;101415.47;5053464;28;20484;-66
2022/08/23 08:36:55;;;;;;;12.98;8.77;;;;;;;27.49;52.19;101422.81;5051581;28;20056;-66
2022/08/23 08:39:31;;;;;;;13.05;8.40;;;;;;;27.66;51.32;101410.66;5051744;28;20103;-57
2022/08/23 08:42:28;;;;;;;13.55;9.13;;;;;;;27.83;49.93;101411.13;5050450;28;20041;-56
2022/08/23 08:44:58;;;;;;;16.50;7.75;;;;;;;28.06;51.71;101417.28;5048065;28;20484;-67
2022/08/23 08:47:33;;;;;;;14.75;7.65;;;;;;;28.29;49.24;101411.53;5052005;28;20404;-66
2022/08/23 08:50:09;;;;;;;15.88;7.90;;;;;;;28.50;47.34;101415.94;5053399;28;20504;-67
2022/08/23 08:52:40;;;;;;;13.68;6.50;;;;;;;28.78;47.88;101410.41;5051928;28;20049;-57
2022/08/23 08:55:13;;;;;;;13.93;6.75;;;;;;;28.92;45.29;101413.06;5050732;28;20450;-65
2022/08/23 08:57:46;;;;;;;11.02;6.18;;;;;;;28.93;46.54;101417.47;5050149;28;20041;-56
2022/08/23 09:00:18;;;;;;;15.05;7.25;;;;;;;29.02;46.65;101412.69;5049247;28;20060;-64
2022/08/23 09:02:47;;;;;;;11.60;7.43;;;;;;;29.08;47.14;101417.25;5052546;28;20047;-65
2022/08/23 09:05:20;;;;;;;13.30;7.40;;;;;;;29.38;45.91;101423.06;5053581;28;20083;-56
2022/08/23 09:08:01;;;;;;;11.68;6.22;;;;;;;29.63;47.25;101416.97;5049491;28;20048;-57
2022/08/23 09:10:46;;;;;;;12.65;6.50;;;;;;;29.87;44.73;101417.34;5051290;28;20091;-65
2022/08/23 09:13:46;;;;;;;12.77;6.13;;;;;;;29.95;43.63;101411.66;5053339;28;20033;-57
2022/08/23 09:16:28;;;;;;;14.50;7.07;;;;;;;29.90;42.38;101412.31;5042167;28;20144;-65
2022/08/23 09:18:57;;;;;;;12.73;5.93;;;;;;;29.95;43.02;101417.09;5051424;28;20511;-65
2022/08/23 09:21:25;;;;;;;10.85;5.25;;;;;;;30.13;42.51;101417.22;5052869;28;20049;-65
2022/08/23 09:23:55;;;;;;;11.13;5.47;;;;;;;30.22;41.93;101414.25;5053586;28;20049;-57
2022/08/23 09:26:30;;;;;;;12.88;5.65;;;;;;;30.27;41.74;101419.84;5050150;28;20458;-56
2022/08/23 09:29:03;;;;;;;13.18;5.03;;;;;;;30.54;41.76;101409.66;5050391;28;20057;-58
2022/08/23 09:31:40;;;;;;;;;;;;;;;30.61;41.04;101412.34;5049571;28;20041;-56
2022/08/23 09:34:08;;;;;;;13.43;5.30;;;;;;;30.56;38.52;101407.59;5051942;28;19921;-56
2022/08/23 09:36:38;;;;;;;10.73;4.20;;;;;;;30.92;39.89;101406.03;5053117;28;20424;-63
2022/08/23 09:39:09;;;;;;;13.73;4.53;;;;;;;31.23;39.99;101401.59;5050599;28;20106;-63
2022/08/23 09:41:40;;;;;;;11.38;4.28;;;;;;;31.39;39.01;101408.34;5050903;28;20045;-57
2022/08/23 09:44:12;;;;;;;10.20;4.05;;;;;;;31.73;35.75;101408.81;5052756;28;20056;-64
2022/08/23 09:46:42;;;;;;;8.30;3.20;;;;;;;31.71;36.54;101405.47;5051288;28;20508;-64
2022/08/23 09:49:24;;;;;;;10.68;3.78;;;;;;;31.73;36.72;101408.81;5050921;28;20044;-64
2022/08/23 09:51:55;;;;;;;11.40;4.88;;;;;;;31.71;36.37;101405.47;5051257;28;20430;-58
2022/08/23 09:54:29;;;;;;;12.02;4.18;;;;;;;31.79;38.25;101397.00;5050994;28;20044;-64
2022/08/23 09:57:01;;;;;;;9.35;3.60;;;;;;;31.88;37.06;101405.72;5049435;28;20049;-57
2022/08/23 09:59:40;;;;;;;11.57;3.67;;;;;;;31.97;36.30;101403.50;5049111;28;20056;-57
2022/08/23 10:02:15;;;;;;;8.35;3.05;;;;;;;31.84;34.47;101405.31;5049589;28;20049;-57
2022/08/23 10:04:54;;;;;;;9.13;2.92;;;;;;;31.82;35.09;101404.75;5052201;28;20510;-57
2022/08/23 10:07:30;;;;;;;11.70;3.70;;;;;;;31.83;34.48;101411.81;5050886;28;20048;-64
2022/08/23 10:10:25;;;;;;;9.38;3.92;;;;;;;31.61;34.82;101406.03;5051170;28;20045;-57
2022/08/23 10:12:55;;;;;;;10.57;3.60;;;;;;;31.62;34.85;101406.84;5048357;28;20163;-64
2022/08/23 10:15:37;;;;;;;11.35;3.53;;;;;;;31.69;35.35;101403.00;5047921;28;20463;-64
2022/08/23 10:18:15;;;;;;;10.57;3.50;;;;;;;31.84;36.38;101396.34;5049433;28;20451;-63
2022/08/23 10:20:52;;;;;;;10.00;4.35;;;;;;;31.67;35.42;101393.41;5049231;28;20049;-63
2022/08/23 10:23:32;;;;;;;11.57;3.88;;;;;;;31.38;34.44;101401.25;5048930;28;20040;-63
2022/08/23 10:26:01;;;;;;;8.00;3.30;;;;;;;31.67;34.41;101393.41;5047451;28;20096;-64
2022/08/23 10:31:35;;;;;;;7.75;3.45;;;;;;;32.13;35.57;101389.25;5051651;28;20041;-65
2022/08/23 10:34:19;;;;;;;9.20;3.00;;;;;;;32.57;35.56;101380.03;5048666;28;20075;-64
2022/08/23 10:37:00;;;;;;;8.15;2.88;;;;;;;32.82;33.76;101385.31;5049425;28;20088;-57
2022/08/23 10:39:30;;;;;;;9.88;3.10;;;;;;;32.97;32.51;101382.09;5049595;28;20423;-64
2022/08/23 10:42:04;;;;;;;8.32;2.90;;;;;;;33.33;32.51;101389.22;5048313;28;20049;-64
2022/08/23 10:44:40;;;;;;;9.15;3.30;;;;;;;33.22;31.44;101387.31;5052406;28;20049;-57
2022/08/23 10:47:18;;;;;;;9.43;3.20;;;;;;;33.23;31.72;101382.69;5053173;28;20178;-63
2022/08/23 10:49:50;;;;;;;9.25;3.08;;;;;;;33.10;32.35;101381.88;5050601;28;20480;-57
2022/08/23 10:52:20;;;;;;;;;;;;;;;33.41;32.01;101381.75;5050808;28;20120;-63
2022/08/23 10:55:05;;;;;;;11.13;3.50;;;;;;;33.49;32.66;101378.66;5047977;28;19927;-56
2022/08/23 10:57:37;;;;;;;10.07;2.92;;;;;;;33.83;32.45;101378.81;5049696;28;20504;-62
2022/08/23 11:00:08;;;;;;;10.15;3.10;;;;;;;33.83;33.30;101368.72;5048946;28;20044;-58
2022/08/23 11:02:48;;;;;;;8.02;3.00;;;;;;;34.14;31.29;101372.03;5052554;28;20063;-59
2022/08/23 11:05:24;;;;;;;7.30;3.00;;;;;;;34.20;31.42;101368.31;5052517;28;20132;-57
2022/08/23 11:07:59;;;;;;;7.82;2.63;;;;;;;34.51;31.18;101371.59;5053491;28;20052;-63
2022/08/23 11:10:33;;;;;;;9.05;3.03;;;;;;;35.03;29.56;101372.41;5051069;28;20164;-62
2022/08/23 11:13:07;;;;;;;8.23;3.33;;;;;;;34.93;29.07;101374.97;5050135;28;20488;-57
2022/08/23 11:15:42;;;;;;;10.07;3.20;;;;;;;34.83;29.90;101370.19;5047935;28;20366;-57
2022/08/23 11:18:40;;;;;;;8.55;3.00;;;;;;;34.85;31.18;101368.03;5049964;28;20053;-65
2022/08/23 11:21:32;;;;;;;7.78;2.90;;;;;;;34.95;30.77;101378.28;5051887;28;20528;-63
2022/08/23 11:24:31;;;;;;;10.52;3.30;;;;;;;34.86;29.86;101378.72;5052803;28;20098;-57
2022/08/23 11:27:05;;;;;;;11.68;3.55;;;;;;;34.94;30.52;101380.19;5052503;28;20408;-57
2022/08/23 11:29:37;;;;;;;9.15;3.00;;;;;;;34.55;29.24;101385.59;5052824;28;20049;-63
2022/08/23 11:32:33;;;;;;;7.07;2.30;;;;;;;34.79;29.04;101380.75;5053248;28;20056;-57
2022/08/23 11:35:34;;;;;;;7.95;2.70;;;;;;;34.89;27.96;101376.56;5053952;28;20388;-64
2022/08/23 11:38:04;;;;;;;8.77;2.47;;;;;;;35.19;27.96;101377.00;5050276;28;20061;-63
2022/08/23 11:41:02;;;;;;;7.03;2.40;;;;;;;35.18;26.96;101380.78;5053438;28;20048;-63
2022/08/23 11:43:37;;;;;;;7.22;2.30;;;;;;;35.11;28.13;101382.91;5053570;28;20048;-58
2022/08/23 11:46:25;;;;;;;5.97;2.10;;;;;;;35.24;26.73;101380.88;5051594;28;20076;-63
2022/08/23 11:49:27;;;;;;;5.50;1.92;;;;;;;35.53;26.63;101382.38;5054877;28;20047;-62